Aérodrome :
LOGIN :

S'inscrire | Disclaimer

   EN    FR    IT 

 










Légende :    VFR   VFR Marginal   IFR   IFR Intensif   IFR Très Intensif
Visi : 
Plafond : 
>= 8 km
>= 3000ft
5 à 8 km
1000 à 3000 ft
1500m à 5 km
500 à 1000 ft
800 à 1500m
200 à 500 ft
< 800m
< 200 ft
Symboles :   Orages  Brouillard  Fortes neiges  Fortes précipitations  Vent > 20 kt
SIGMETs :   Divers  Orages  Givrage  Turbulence  Onde Orograph.  Cendres Volcan.







- Altitude de l'aérodrome : 39 ft
- Code IATA : ANR


EBAW - Anvers / Antwerpen Deurne

DERNIER METAR :
  • 301020Z 23008KT 180V250 CAVOK 20/07 Q1024 NOSIG

METARs EXPIRÉS :
  • 300950Z 21010KT 180V240 CAVOK 18/07 Q1024 NOSIG
  • 300920Z 21010KT CAVOK 18/07 Q1024 NOSIG
  • 300850Z 20009KT CAVOK 17/07 Q1024 NOSIG
  • 300820Z 19008KT CAVOK 16/07 Q1024 NOSIG
  • 300750Z 20007KT CAVOK 15/07 Q1024 NOSIG

TAF TAF EBAW
Valide du 30 à 09h jusqu'au 30 à 18h UTC


300800Z 3009/3018 20008KT CAVOK
Pas de NOTAMs connus pour ce terrain.



MET'MAP, la Météo Aéronautique d'un coup d'oeil ! - Copyright ORBIFLY Décembre 2007 - Disclaimer

ORBIFLY MET'MAP TEAM :

Programmation & Développement : Alexandra Zaïnal
Conception & Développement : Baudouin d'Aumeries
Co-Programmation & Développement : Marc-Olivier Méhu
Soutien technique & logistique : Manuel Goepfert

Contact : metmap@orbifly.com




SOURCES & CREDITS :

   NOAA